Time;durP1;ratioP1;P1;durP2;ratioP2;P2;SDS_P1;SDS_P2;PMS_P1;PMS_P2;Temp;Humidity;BMP_temperature;BMP_pressure;BME280_temperature;BME280_humidity;BME280_pressure;Samples;Min_cycle;Max_cycle;Signal;HPM_P1;HPM_P2
2023/03/11 00:00:26;;;;;;;8.27;1.60;;;;;;;2.44;66.47;100496.28;3607769;39;20131;-68
2023/03/11 00:02:55;;;;;;;4.57;1.45;;;;;;;2.36;67.49;100485.06;3609253;39;20313;-67
2023/03/11 00:05:29;;;;;;;8.05;2.65;;;;;;;2.32;67.10;100481.66;3612165;39;20058;-68
2023/03/11 00:07:55;;;;;;;4.93;1.60;;;;;;;2.30;68.05;100486.13;3612375;39;20064;-67
2023/03/11 00:10:27;;;;;;;3.65;1.05;;;;;;;2.26;68.93;100491.59;3610836;39;20091;-68
2023/03/11 00:12:52;;;;;;;4.72;1.40;;;;;;;2.16;69.81;100485.72;3597354;39;20051;-68
2023/03/11 00:15:18;;;;;;;6.65;1.67;;;;;;;2.13;70.56;100485.81;3608845;39;20046;-68
2023/03/11 00:17:45;;;;;;;8.80;1.30;;;;;;;2.05;69.98;100499.31;3608649;39;20325;-68
2023/03/11 00:20:32;;;;;;;13.10;1.95;;;;;;;1.98;71.28;100497.78;3613636;39;20050;-68
2023/03/11 00:22:58;;;;;;;3.35;1.75;;;;;;;1.87;71.32;100499.88;3613326;39;20050;-68
2023/03/11 00:25:28;;;;;;;8.63;1.88;;;;;;;1.83;71.85;100498.25;3604170;39;20062;-68
2023/03/11 00:27:54;;;;;;;4.63;1.17;;;;;;;1.80;71.75;100503.66;3607646;39;20047;-69
2023/03/11 00:30:23;;;;;;;4.78;1.13;;;;;;;1.72;71.65;100509.19;3607515;39;20051;-68
2023/03/11 00:32:52;;;;;;;7.80;1.40;;;;;;;1.71;72.16;100506.59;3607979;39;20085;-68
2023/03/11 00:35:23;;;;;;;6.18;1.50;;;;;;;1.65;73.50;100514.72;3612516;39;20047;-68
2023/03/11 00:37:57;;;;;;;6.35;1.52;;;;;;;1.58;72.40;100525.50;3615798;39;20057;-68
2023/03/11 00:40:27;;;;;;;4.53;1.50;;;;;;;1.56;72.85;100523.84;3605005;39;20059;-68
2023/03/11 00:42:52;;;;;;;7.60;1.33;;;;;;;1.50;72.77;100524.00;3607778;39;20051;-68
2023/03/11 00:45:18;;;;;;;6.88;1.38;;;;;;;1.47;74.02;100529.41;3608890;39;20396;-68
2023/03/11 00:47:45;;;;;;;7.18;1.63;;;;;;;1.25;73.01;100502.66;3609985;39;20051;-68
2023/03/11 00:50:18;;;;;;;5.25;1.30;;;;;;;1.42;73.38;100528.66;3606612;39;20055;-69
2023/03/11 00:52:45;;;;;;;5.22;1.33;;;;;;;1.43;72.20;100525.06;3594705;39;20058;-68
2023/03/11 00:55:19;;;;;;;5.93;1.35;;;;;;;1.41;73.34;100533.09;3607330;39;20135;-68
2023/03/11 00:57:45;;;;;;;7.20;1.83;;;;;;;1.05;73.06;100477.63;3604544;39;20110;-68
2023/03/11 01:00:18;;;;;;;6.40;1.60;;;;;;;1.39;72.59;100540.19;3608532;39;20050;-69
2023/03/11 01:02:44;;;;;;;8.35;1.58;;;;;;;1.41;72.91;100537.50;3598693;39;20073;-69
2023/03/11 01:05:10;;;;;;;8.13;1.95;;;;;;;1.43;73.57;100544.50;3608853;39;20047;-69
2023/03/11 01:07:36;;;;;;;6.28;1.77;;;;;;;1.44;72.57;100551.53;3605068;39;20155;-68
2023/03/11 01:10:01;;;;;;;5.40;1.30;;;;;;;1.28;72.68;100527.28;3609648;39;20050;-68
2023/03/11 01:12:27;;;;;;;3.88;1.58;;;;;;;1.31;73.53;100529.84;3612708;39;20135;-68
2023/03/11 01:14:53;;;;;;;4.18;1.35;;;;;;;1.48;72.58;100560.25;3615272;39;20088;-68
2023/03/11 01:17:20;;;;;;;7.35;1.52;;;;;;;1.54;71.77;100568.03;3609856;39;20074;-68
2023/03/11 01:19:47;;;;;;;5.75;1.42;;;;;;;1.51;71.72;100554.88;3611946;39;20047;-69
2023/03/11 01:22:13;;;;;;;5.43;1.02;;;;;;;1.59;71.50;100569.63;3608278;39;20050;-67
2023/03/11 01:24:39;;;;;;;7.75;1.45;;;;;;;1.63;71.82;100571.28;3608411;39;20087;-67
2023/03/11 01:27:04;;;;;;;7.60;1.90;;;;;;;1.60;71.80;100559.91;3612046;39;20062;-68
2023/03/11 01:29:30;;;;;;;7.90;1.20;;;;;;;1.69;72.16;100574.66;3611482;39;20094;-68
2023/03/11 01:31:56;;;;;;;7.88;1.35;;;;;;;1.55;71.19;100552.06;3619792;39;20066;-68
2023/03/11 01:34:21;;;;;;;5.57;1.75;;;;;;;1.67;71.20;100574.69;3612169;39;20047;-68
2023/03/11 01:36:47;;;;;;;4.70;1.88;;;;;;;1.68;71.99;100567.63;3606512;39;20413;-68
2023/03/11 01:39:12;;;;;;;6.63;1.48;;;;;;;1.68;71.29;100578.22;3609600;39;20062;-68
2023/03/11 01:41:38;;;;;;;7.53;1.73;;;;;;;1.67;71.40;100576.47;3608663;39;20297;-68
2023/03/11 01:44:04;;;;;;;10.55;1.40;;;;;;;1.62;70.88;100569.53;3611899;39;20063;-67
2023/03/11 01:46:58;;;;;;;4.88;1.35;;;;;;;1.65;71.88;100567.69;3616692;39;20055;-68
2023/03/11 01:49:25;;;;;;;9.65;1.73;;;;;;;1.59;72.10;100572.28;3612287;39;20054;-68
2023/03/11 01:51:59;;;;;;;8.25;1.98;;;;;;;1.60;71.21;100579.31;3607928;39;20052;-68
2023/03/11 01:54:34;;;;;;;6.30;1.65;;;;;;;1.57;71.23;100573.25;3607211;39;20050;-67
2023/03/11 01:57:06;;;;;;;5.32;1.88;;;;;;;1.54;72.30;100571.53;3610329;39;20064;-67
2023/03/11 01:59:39;;;;;;;10.35;1.65;;;;;;;1.53;71.79;100575.09;3608098;39;21797;-68
2023/03/11 02:02:22;;;;;;;6.25;1.75;;;;;;;1.51;71.87;100578.72;3612212;39;20432;-67
2023/03/11 02:04:50;;;;;;;7.80;1.45;;;;;;;1.47;71.89;100583.22;3606461;39;20067;-67
2023/03/11 02:07:17;;;;;;;4.22;1.50;;;;;;;1.43;71.50;100578.94;3616858;39;20050;-68
2023/03/11 02:09:43;;;;;;;7.28;1.65;;;;;;;1.43;71.37;100571.00;3606289;39;20103;-68
2023/03/11 02:12:13;;;;;;;7.20;2.15;;;;;;;1.41;71.58;100575.44;3609275;39;20660;-69
2023/03/11 02:14:47;;;;;;;4.43;1.58;;;;;;;1.18;71.79;100530.22;3609879;39;20128;-67
2023/03/11 02:17:13;;;;;;;5.22;1.50;;;;;;;1.33;71.78;100556.25;3597699;39;20055;-67
2023/03/11 02:20:00;;;;;;;4.35;1.70;;;;;;;1.42;72.67;100578.97;3610420;39;20354;-68
2023/03/11 02:22:28;;;;;;;6.97;1.90;;;;;;;1.22;72.34;100547.75;3610100;39;20058;-66
2023/03/11 02:25:46;;;;;;;9.60;1.77;;;;;;;1.42;71.48;100581.63;3605402;39;20055;-68
2023/03/11 02:28:17;;;;;;;7.82;2.35;;;;;;;1.44;71.40;100585.09;3609750;39;20046;-68
2023/03/11 02:30:44;;;;;;;8.27;1.70;;;;;;;1.44;71.04;100585.97;3611344;39;20124;-68
2023/03/11 02:33:13;;;;;;;8.00;1.60;;;;;;;1.10;71.76;100528.66;3611109;39;20063;-67
2023/03/11 02:35:40;;;;;;;8.77;1.85;;;;;;;1.44;71.24;100571.84;3612818;39;20123;-68
2023/03/11 02:38:06;;;;;;;4.47;1.40;;;;;;;1.47;71.20;100580.56;3614693;39;20050;-68
2023/03/11 02:40:51;;;;;;;6.28;1.75;;;;;;;1.45;70.54;100577.09;3610112;39;20058;-67
2023/03/11 02:43:26;;;;;;;9.02;2.33;;;;;;;1.44;71.06;100580.66;3610880;39;20055;-67
2023/03/11 02:45:55;;;;;;;7.72;1.95;;;;;;;1.44;71.75;100580.66;3612881;39;20325;-68
2023/03/11 02:48:22;;;;;;;7.13;1.85;;;;;;;1.41;71.31;100580.75;3614886;39;20069;-68
2023/03/11 02:50:48;;;;;;;5.22;1.77;;;;;;;1.38;71.76;100581.69;3611595;39;20057;-68
2023/03/11 02:53:14;;;;;;;8.57;2.03;;;;;;;1.36;71.22;100582.66;3611852;39;20054;-67
2023/03/11 02:55:40;;;;;;;6.50;1.80;;;;;;;1.29;71.98;100574.00;3608969;39;20082;-67
2023/03/11 02:58:06;;;;;;;6.88;1.75;;;;;;;1.27;71.55;100572.31;3611568;39;20078;-68
2023/03/11 03:00:32;;;;;;;8.52;1.80;;;;;;;1.24;71.64;100570.63;3610999;39;20062;-68
2023/03/11 03:02:58;;;;;;;5.55;1.73;;;;;;;1.20;72.86;100576.03;3599418;39;20051;-68
2023/03/11 03:05:23;;;;;;;6.53;1.70;;;;;;;1.19;71.96;100579.59;3611638;39;20061;-68
2023/03/11 03:07:50;;;;;;;5.47;2.00;;;;;;;1.09;72.39;100561.31;3611675;39;20424;-68
2023/03/11 03:10:19;;;;;;;7.07;1.85;;;;;;;1.18;72.51;100583.19;3609412;39;20452;-68
2023/03/11 03:12:45;;;;;;;6.93;1.65;;;;;;;1.14;72.39;100583.25;3598048;39;20048;-68
2023/03/11 03:15:11;;;;;;;3.97;1.83;;;;;;;1.14;72.61;100593.84;3609950;39;20444;-68
2023/03/11 03:17:37;;;;;;;10.07;3.05;;;;;;;1.09;72.93;100598.38;3611406;39;20047;-67
2023/03/11 03:20:07;;;;;;;7.38;1.50;;;;;;;1.09;72.99;100601.03;3606782;39;20094;-68
2023/03/11 03:22:33;;;;;;;5.88;1.65;;;;;;;1.08;72.47;100611.63;3610493;39;20053;-68
2023/03/11 03:24:59;;;;;;;4.32;1.98;;;;;;;1.04;72.17;100613.50;3609925;39;20130;-68
2023/03/11 03:27:24;;;;;;;4.68;1.67;;;;;;;1.01;72.88;100618.00;3611495;39;20229;-68
2023/03/11 03:29:50;;;;;;;6.05;1.67;;;;;;;0.99;72.94;100620.72;3608923;39;20054;-68
2023/03/11 03:32:15;;;;;;;8.13;2.28;;;;;;;0.92;72.01;100625.31;3612300;39;20047;-68
2023/03/11 03:34:41;;;;;;;5.97;1.65;;;;;;;0.96;72.88;100631.38;3612030;39;20062;-68
2023/03/11 03:37:06;;;;;;;6.47;1.50;;;;;;;0.93;72.87;100623.53;3611482;39;20425;-69
2023/03/11 03:39:32;;;;;;;5.57;1.70;;;;;;;0.90;73.11;100637.69;3611681;39;20039;-69
2023/03/11 03:41:58;;;;;;;4.22;1.80;;;;;;;0.90;72.29;100647.41;3609545;39;20292;-69
2023/03/11 03:44:24;;;;;;;6.45;2.03;;;;;;;0.89;73.59;100645.69;3609713;39;20055;-69
2023/03/11 03:46:49;;;;;;;4.93;1.83;;;;;;;0.78;73.08;100632.69;3609834;39;20070;-68
2023/03/11 03:49:15;;;;;;;4.20;1.38;;;;;;;0.85;72.80;100644.00;3611504;39;20061;-68
2023/03/11 03:51:40;;;;;;;6.47;1.75;;;;;;;0.86;73.06;100653.69;3609712;39;20042;-68
2023/03/11 03:54:06;;;;;;;3.35;1.52;;;;;;;0.71;72.58;100627.59;3608076;39;20058;-69
2023/03/11 03:56:31;;;;;;;7.72;1.75;;;;;;;0.81;72.38;100647.63;3610195;39;20297;-68
2023/03/11 03:58:57;;;;;;;5.53;1.52;;;;;;;0.81;72.64;100652.94;3610500;39;20054;-68
2023/03/11 04:01:23;;;;;;;4.25;1.25;;;;;;;0.80;72.51;100651.19;3612226;39;20385;-68
2023/03/11 04:03:48;;;;;;;7.85;1.92;;;;;;;0.80;72.69;100646.78;3608397;39;20067;-68
2023/03/11 04:06:24;;;;;;;5.80;1.55;;;;;;;0.89;72.79;100661.56;3604177;39;20385;-68
2023/03/11 04:08:52;;;;;;;5.00;1.80;;;;;;;0.95;72.80;100660.50;3609848;39;20057;-68
2023/03/11 04:11:19;;;;;;;6.38;1.88;;;;;;;0.97;73.27;100658.72;3612395;39;20649;-67
2023/03/11 04:13:45;;;;;;;3.08;1.40;;;;;;;0.99;73.27;100659.53;3611192;39;20053;-68
2023/03/11 04:16:19;;;;;;;9.25;1.85;;;;;;;0.99;73.23;100665.72;3609718;39;20057;-68
2023/03/11 04:18:44;;;;;;;8.52;1.90;;;;;;;1.00;72.30;100659.50;3605918;39;20055;-68
2023/03/11 04:21:10;;;;;;;5.93;2.00;;;;;;;0.98;73.05;100669.25;3609692;39;20051;-68
2023/03/11 04:23:36;;;;;;;6.88;1.73;;;;;;;0.99;72.57;100663.06;3612054;39;20090;-68
2023/03/11 04:26:01;;;;;;;8.30;1.80;;;;;;;0.99;72.71;100656.91;3611935;39;20069;-68
2023/03/11 04:28:27;;;;;;;5.85;1.67;;;;;;;0.92;72.53;100666.78;3611144;39;20058;-67
2023/03/11 04:30:53;;;;;;;9.25;1.95;;;;;;;0.91;73.43;100665.00;3608803;39;20058;-69
2023/03/11 04:33:19;;;;;;;6.38;1.58;;;;;;;0.88;72.79;100665.94;3613601;39;20058;-68
2023/03/11 04:35:44;;;;;;;10.25;1.92;;;;;;;0.89;72.56;100669.50;3606207;39;20051;-68
2023/03/11 04:38:10;;;;;;;10.05;1.95;;;;;;;0.84;72.58;100666.06;3607459;39;20063;-68
2023/03/11 04:40:37;;;;;;;4.32;1.40;;;;;;;0.85;72.55;100668.66;3612100;39;20058;-68
2023/03/11 04:43:03;;;;;;;6.85;1.65;;;;;;;0.83;72.72;100667.00;3609572;39;20099;-67
2023/03/11 04:45:29;;;;;;;4.75;1.95;;;;;;;0.80;72.95;100667.06;3611899;39;20110;-67
2023/03/11 04:47:55;;;;;;;5.75;1.67;;;;;;;0.77;72.71;100668.00;3609014;39;20135;-67
2023/03/11 04:50:21;;;;;;;3.20;1.75;;;;;;;0.77;73.21;100673.31;3611373;39;20053;-68
2023/03/11 04:52:47;;;;;;;6.18;2.00;;;;;;;0.76;74.10;100681.25;3608943;39;20078;-67
2023/03/11 04:55:14;;;;;;;6.60;1.92;;;;;;;0.74;73.85;100672.50;3610269;39;20055;-67
2023/03/11 04:57:41;;;;;;;9.43;1.98;;;;;;;0.71;74.07;100670.81;3610319;39;20295;-67
2023/03/11 05:00:11;;;;;;;8.07;1.98;;;;;;;0.68;75.05;100669.09;3614239;39;20058;-67
2023/03/11 05:02:39;;;;;;;4.75;1.98;;;;;;;0.54;74.69;100652.69;3599206;39;20342;-67
2023/03/11 05:05:08;;;;;;;4.50;1.90;;;;;;;0.59;75.30;100669.31;3609489;39;20051;-67
2023/03/11 05:07:34;;;;;;;5.75;1.95;;;;;;;0.57;74.52;100676.41;3598274;39;20049;-68
2023/03/11 05:10:01;;;;;;;3.30;1.92;;;;;;;0.51;75.96;100676.56;3603602;39;20071;-67
2023/03/11 05:12:26;;;;;;;6.40;1.85;;;;;;;0.50;75.50;100685.38;3611722;39;20062;-66
2023/03/11 05:14:52;;;;;;;4.97;1.60;;;;;;;0.41;75.48;100682.94;3610811;39;20058;-67
2023/03/11 05:17:18;;;;;;;4.95;1.70;;;;;;;0.42;75.41;100687.34;3612029;39;20054;-67
2023/03/11 05:19:45;;;;;;;5.97;1.88;;;;;;;0.37;76.26;100689.22;3607064;39;20077;-67
2023/03/11 05:22:11;;;;;;;9.38;1.98;;;;;;;0.34;76.99;100694.56;3609522;39;20058;-68
2023/03/11 05:24:37;;;;;;;5.70;1.98;;;;;;;0.30;77.47;100682.31;3610554;39;20054;-68
2023/03/11 05:27:03;;;;;;;6.75;2.47;;;;;;;0.27;77.05;100698.25;3607447;39;20043;-67
2023/03/11 05:29:30;;;;;;;8.50;2.00;;;;;;;0.22;76.95;100693.94;3614082;39;20054;-67
2023/03/11 05:31:56;;;;;;;7.90;2.20;;;;;;;-0.03;77.05;100659.25;3610974;39;20066;-68
2023/03/11 05:34:22;;;;;;;7.90;2.60;;;;;;;0.15;77.68;100700.25;3607459;39;20059;-67
2023/03/11 05:36:48;;;;;;;6.53;1.92;;;;;;;0.20;78.13;100708.09;3609818;39;20050;-67
2023/03/11 05:39:14;;;;;;;4.93;1.65;;;;;;;0.18;76.81;100710.75;3608720;39;20062;-69
2023/03/11 05:41:40;;;;;;;7.80;2.00;;;;;;;-0.25;77.25;100639.44;3614255;39;20294;-68
2023/03/11 05:44:05;;;;;;;3.17;1.95;;;;;;;0.15;76.84;100704.66;3607249;39;20059;-67
2023/03/11 05:46:31;;;;;;;8.57;1.80;;;;;;;0.10;77.31;100699.50;3606930;39;20044;-67
2023/03/11 05:48:59;;;;;;;9.32;1.98;;;;;;;0.16;76.19;100711.69;3609705;39;20074;-68
2023/03/11 05:51:25;;;;;;;4.72;2.00;;;;;;;0.14;76.97;100713.50;3610186;39;20059;-68
2023/03/11 05:53:50;;;;;;;5.97;2.30;;;;;;;0.14;76.98;100718.78;3610237;39;20058;-68
2023/03/11 05:56:20;;;;;;;7.63;1.80;;;;;;;0.12;76.34;100718.81;3612237;39;20062;-67
2023/03/11 05:58:46;;;;;;;8.00;2.70;;;;;;;0.12;76.04;100721.44;3613414;39;20055;-67
2023/03/11 06:01:17;;;;;;;6.40;2.90;;;;;;;0.11;76.99;100719.72;3609318;39;20055;-67
2023/03/11 06:03:43;;;;;;;7.90;3.38;;;;;;;0.11;77.29;100724.13;3606511;39;20080;-66
2023/03/11 06:06:12;;;;;;;6.82;2.53;;;;;;;0.10;76.25;100732.97;3609061;39;20087;-66
2023/03/11 06:08:38;;;;;;;9.13;2.80;;;;;;;0.09;76.78;100734.72;3611100;39;20054;-68
2023/03/11 06:11:10;;;;;;;13.00;2.80;;;;;;;-0.03;76.67;100721.78;3607549;39;20047;-69
2023/03/11 06:13:36;;;;;;;9.23;2.47;;;;;;;-0.13;77.04;100713.13;3608903;39;20051;-70
2023/03/11 06:16:04;;;;;;;8.85;1.80;;;;;;;0.06;77.40;100734.78;3607567;39;20135;-69
2023/03/11 06:18:30;;;;;;;5.50;2.00;;;;;;;0.07;76.95;100736.53;3606342;39;20054;-70
2023/03/11 06:21:01;;;;;;;9.32;2.40;;;;;;;-0.11;76.99;100707.84;3607525;39;20050;-69
2023/03/11 06:23:29;;;;;;;7.05;2.28;;;;;;;0.07;76.13;100754.19;3606476;39;20135;-69
2023/03/11 06:26:01;;;;;;;7.65;2.47;;;;;;;0.06;77.24;100748.00;3605660;39;20051;-70
2023/03/11 06:28:28;;;;;;;8.02;1.90;;;;;;;0.06;77.46;100747.13;3600463;39;20059;-69
2023/03/11 06:30:55;;;;;;;4.97;2.00;;;;;;;-0.04;76.86;100731.47;3610290;39;20063;-69
2023/03/11 06:33:23;;;;;;;7.60;2.30;;;;;;;-0.05;76.71;100740.28;3602317;39;20171;-69
2023/03/11 06:36:12;;;;;;;8.98;2.20;;;;;;;0.06;76.93;100758.56;3609960;39;20118;-69
2023/03/11 06:38:37;;;;;;;9.27;2.40;;;;;;;0.13;76.99;100765.50;3596533;39;20086;-70
2023/03/11 06:41:05;;;;;;;5.47;1.95;;;;;;;0.28;76.94;100766.06;3607376;39;20066;-70
2023/03/11 06:43:32;;;;;;;8.32;2.50;;;;;;;0.43;75.76;100768.41;3607540;39;20083;-69
2023/03/11 06:45:59;;;;;;;5.78;2.13;;;;;;;0.66;75.92;100775.84;3610293;39;20063;-69
2023/03/11 06:48:26;;;;;;;4.28;1.98;;;;;;;0.83;74.98;100779.00;3609464;39;20059;-69
2023/03/11 06:50:57;;;;;;;7.85;2.08;;;;;;;0.96;73.82;100789.31;3609596;39;20119;-69
2023/03/11 06:53:23;;;;;;;5.43;1.92;;;;;;;1.05;73.63;100789.09;3610780;39;20070;-71
2023/03/11 06:56:08;;;;;;;5.28;1.90;;;;;;;1.14;72.41;100786.19;3609042;39;20059;-69
2023/03/11 06:58:37;;;;;;;5.18;1.83;;;;;;;1.09;72.27;100775.72;3607829;39;20159;-70
2023/03/11 07:01:10;;;;;;;6.00;1.80;;;;;;;1.33;71.45;100813.09;3611372;39;20089;-69
2023/03/11 07:03:36;;;;;;;12.80;4.63;;;;;;;1.26;71.93;100801.78;3608960;39;20393;-70
2023/03/11 07:06:02;;;;;;;2.72;1.50;;;;;;;1.36;71.53;100821.88;3605713;39;20051;-70
2023/03/11 07:08:29;;;;;;;6.53;1.70;;;;;;;1.29;70.83;100807.03;3608719;39;20046;-70
2023/03/11 07:11:17;;;;;;;7.80;1.73;;;;;;;1.43;71.76;100821.69;3602729;39;20055;-70
2023/03/11 07:13:43;;;;;;;6.30;2.00;;;;;;;1.49;71.17;100822.44;3609444;39;20071;-70
2023/03/11 07:16:22;;;;;;;6.45;2.20;;;;;;;1.55;71.55;100824.06;3614062;39;20047;-69
2023/03/11 07:18:50;;;;;;;4.53;1.85;;;;;;;1.46;70.86;100809.28;3608406;39;20062;-72
2023/03/11 07:21:20;;;;;;;6.00;2.17;;;;;;;1.65;70.47;100822.03;3607725;39;20112;-69
2023/03/11 07:23:48;;;;;;;4.70;1.80;;;;;;;1.71;70.77;100821.88;3609244;39;20069;-69
2023/03/11 07:26:15;;;;;;;6.88;2.05;;;;;;;1.87;70.27;100836.47;3610886;39;20050;-69
2023/03/11 07:28:41;;;;;;;7.53;1.90;;;;;;;2.04;70.58;100833.41;3608773;39;20061;-69
2023/03/11 07:31:15;;;;;;;9.70;1.67;;;;;;;2.24;68.87;100840.81;3614604;39;20059;-69
2023/03/11 07:33:41;;;;;;;3.53;1.60;;;;;;;2.46;68.47;100825.19;3609053;39;20719;-69
2023/03/11 07:36:11;;;;;;;8.90;1.92;;;;;;;2.74;68.52;100830.56;3608688;39;20055;-68
2023/03/11 07:38:37;;;;;;;5.78;1.67;;;;;;;3.00;68.06;100840.41;3611706;39;20522;-68
2023/03/11 07:41:04;;;;;;;6.22;2.25;;;;;;;3.24;66.42;100839.66;3612016;39;20061;-68
2023/03/11 07:43:31;;;;;;;5.18;1.85;;;;;;;3.52;66.17;100833.47;3604381;39;20055;-68
2023/03/11 07:46:17;;;;;;;5.35;1.70;;;;;;;3.84;65.03;100845.69;3604857;39;20062;-68
2023/03/11 07:48:43;;;;;;;6.10;2.13;;;;;;;4.16;63.77;100831.25;3609150;39;20059;-68
2023/03/11 07:51:20;;;;;;;8.50;2.40;;;;;;;4.49;63.10;100838.94;3599256;39;20515;-69
2023/03/11 07:53:47;;;;;;;5.95;2.20;;;;;;;4.63;60.68;100820.69;3608609;39;20046;-69
2023/03/11 07:56:16;;;;;;;4.65;1.92;;;;;;;5.01;60.38;100853.00;3610617;39;20400;-69
2023/03/11 07:58:42;;;;;;;4.03;1.60;;;;;;;5.22;58.93;100864.59;3608804;39;20059;-68
2023/03/11 08:01:16;;;;;;;8.32;1.80;;;;;;;5.46;58.74;100865.44;3597119;39;20062;-69
2023/03/11 08:03:44;;;;;;;4.57;1.40;;;;;;;5.50;57.83;100842.19;3607051;39;20537;-69
2023/03/11 08:06:30;;;;;;;4.97;2.00;;;;;;;5.84;58.49;100865.66;3612367;39;20057;-68
2023/03/11 08:08:59;;;;;;;5.50;1.88;;;;;;;6.04;56.31;100864.84;3610609;39;20062;-69
2023/03/11 08:11:25;;;;;;;6.50;2.47;;;;;;;6.22;55.60;100866.75;3611313;39;20047;-68
2023/03/11 08:13:52;;;;;;;5.78;1.92;;;;;;;6.43;54.30;100870.25;3608977;39;20399;-69
2023/03/11 08:16:21;;;;;;;9.07;2.00;;;;;;;6.66;54.50;100871.94;3610881;39;20055;-69
2023/03/11 08:18:49;;;;;;;5.35;1.83;;;;;;;6.80;53.52;100873.97;3610836;39;20143;-69
2023/03/11 08:21:26;;;;;;;4.85;1.38;;;;;;;7.03;55.35;100856.88;3605188;39;20049;-70
2023/03/11 08:23:57;;;;;;;5.30;1.50;;;;;;;7.28;52.16;100869.09;3609171;39;20065;-70
2023/03/11 08:26:23;;;;;;;5.35;1.60;;;;;;;7.59;52.79;100874.69;3604369;39;20056;-70
2023/03/11 08:28:49;;;;;;;6.40;1.40;;;;;;;7.84;51.12;100862.81;3605709;39;20047;-70
2023/03/11 08:31:23;;;;;;;3.60;1.30;;;;;;;8.04;50.62;100875.16;3610267;39;20059;-70
2023/03/11 08:33:51;;;;;;;6.00;1.40;;;;;;;8.10;47.31;100881.09;3607516;39;20050;-70
2023/03/11 08:36:18;;;;;;;6.15;1.58;;;;;;;8.22;48.10;100878.75;3608896;39;20058;-71
2023/03/11 08:38:44;;;;;;;3.83;1.48;;;;;;;8.29;47.69;100883.69;3607846;39;20061;-70
2023/03/11 08:41:10;;;;;;;5.72;1.60;;;;;;;8.33;46.66;100879.03;3609997;39;20090;-71
2023/03/11 08:43:36;;;;;;;3.35;1.48;;;;;;;8.36;45.86;100882.41;3607530;39;20051;-71
2023/03/11 08:46:07;;;;;;;4.55;1.15;;;;;;;8.32;45.33;100890.69;3611390;39;20476;-71
2023/03/11 08:48:35;;;;;;;2.95;1.25;;;;;;;8.31;44.50;100888.97;3610002;39;20063;-70
2023/03/11 08:51:07;;;;;;;1.75;1.17;;;;;;;8.37;44.33;100894.00;3605981;39;20385;-70
2023/03/11 08:53:32;;;;;;;4.35;1.10;;;;;;;8.35;42.75;100901.25;3600055;39;20524;-70
2023/03/11 08:55:58;;;;;;;5.20;1.35;;;;;;;8.30;43.80;100897.94;3605977;39;20070;-69
2023/03/11 08:58:23;;;;;;;3.95;1.45;;;;;;;8.25;44.66;100908.91;3609484;39;20063;-69
2023/03/11 09:00:49;;;;;;;3.45;1.25;;;;;;;8.25;46.55;100906.22;3607841;39;20293;-69
2023/03/11 09:03:15;;;;;;;5.97;1.40;;;;;;;8.27;45.39;100908.81;3608479;39;20047;-69
2023/03/11 09:05:40;;;;;;;5.32;1.33;;;;;;;8.35;44.89;100918.19;3605275;39;20074;-69
2023/03/11 09:08:06;;;;;;;3.00;1.15;;;;;;;8.47;42.87;100910.47;3606431;39;20078;-69
2023/03/11 09:10:31;;;;;;;5.70;1.40;;;;;;;8.67;42.41;100907.66;3608576;39;20067;-69
2023/03/11 09:12:57;;;;;;;4.45;1.30;;;;;;;8.90;42.83;100908.25;3606779;39;20066;-71
2023/03/11 09:15:23;;;;;;;4.45;1.25;;;;;;;9.11;41.24;100909.78;3613303;39;20062;-70
2023/03/11 09:17:49;;;;;;;5.00;1.23;;;;;;;9.27;41.76;100904.44;3610848;39;20488;-69
2023/03/11 09:20:15;;;;;;;3.53;1.05;;;;;;;9.26;40.97;100910.72;3609588;39;20058;-70
2023/03/11 09:22:40;;;;;;;3.00;1.10;;;;;;;8.92;40.51;100867.00;3607934;39;20051;-69
2023/03/11 09:25:08;;;;;;;2.67;0.73;;;;;;;9.26;37.82;100921.47;3607614;39;20059;-69
2023/03/11 09:27:34;;;;;;;5.53;1.00;;;;;;;9.36;39.81;100914.66;3608540;39;20062;-68
2023/03/11 09:29:59;;;;;;;3.75;1.02;;;;;;;9.45;40.00;100922.19;3610678;39;20087;-70
2023/03/11 09:32:25;;;;;;;2.25;0.63;;;;;;;9.73;38.87;100926.00;3609883;39;20328;-68
2023/03/11 09:34:51;;;;;;;3.60;0.80;;;;;;;9.82;39.69;100933.53;3604727;39;20051;-68
2023/03/11 09:37:16;;;;;;;2.45;0.80;;;;;;;9.72;36.80;100924.28;3610287;39;20316;-68
2023/03/11 09:39:42;;;;;;;4.05;1.05;;;;;;;9.63;38.75;100936.38;3611240;39;20301;-67
2023/03/11 09:43:09;;;;;;;4.18;0.90;;;;;;;9.52;39.63;100920.91;3605975;39;20059;-67
2023/03/11 09:45:52;;;;;;;2.70;1.00;;;;;;;9.47;39.98;100893.44;3606476;39;20099;-67
2023/03/11 09:48:39;;;;;;;1.83;0.70;;;;;;;9.85;39.87;100917.25;3608249;39;20389;-68
2023/03/11 09:51:16;;;;;;;2.75;0.63;;;;;;;10.05;40.61;100928.66;3608626;39;20772;-68
2023/03/11 09:53:45;;;;;;;1.73;0.70;;;;;;;10.09;37.60;100917.66;3606683;39;20058;-68
2023/03/11 09:56:17;;;;;;;4.30;1.00;;;;;;;10.10;38.08;100926.56;3607860;39;20057;-69
2023/03/11 09:59:01;;;;;;;3.28;0.85;;;;;;;10.16;37.51;100928.91;3604329;39;20278;-68
2023/03/11 10:01:33;;;;;;;2.50;0.88;;;;;;;10.09;37.43;100928.41;3607241;39;20066;-67
2023/03/11 10:04:43;;;;;;;3.47;0.80;;;;;;;9.96;38.42;100912.13;3608856;39;20352;-67
2023/03/11 10:07:20;;;;;;;3.45;0.68;;;;;;;9.64;39.59;100915.78;3613145;39;20047;-67
2023/03/11 10:09:56;;;;;;;4.65;0.82;;;;;;;9.19;41.59;100920.06;3609986;39;20313;-67
2023/03/11 10:13:02;;;;;;;3.75;1.08;;;;;;;9.00;41.18;100931.78;3610502;39;20050;-67
2023/03/11 10:15:52;;;;;;;2.70;0.75;;;;;;;8.74;41.96;100935.00;3608788;39;20108;-67
2023/03/11 10:18:54;;;;;;;2.03;0.63;;;;;;;8.45;42.41;100929.34;3612456;39;20055;-67
2023/03/11 10:21:28;;;;;;;4.60;0.80;;;;;;;8.31;43.76;100937.19;3606334;39;20054;-67
2023/03/11 10:24:30;;;;;;;2.10;0.82;;;;;;;8.19;42.80;100932.44;3606104;39;20078;-67
2023/03/11 10:27:08;;;;;;;5.15;0.68;;;;;;;7.85;41.52;100907.34;3606752;39;20164;-67
2023/03/11 10:30:00;;;;;;;4.30;1.15;;;;;;;8.05;42.26;100947.38;3611835;39;20119;-67
2023/03/11 10:32:51;;;;;;;4.28;1.17;;;;;;;8.08;42.49;100947.22;3612685;39;20417;-67
2023/03/11 10:35:27;;;;;;;4.25;1.05;;;;;;;8.02;41.48;100947.50;3611984;39;20124;-67
2023/03/11 10:38:15;;;;;;;2.75;0.80;;;;;;;7.97;41.44;100946.88;3608039;39;20063;-67
2023/03/11 10:40:44;;;;;;;3.40;0.63;;;;;;;8.05;42.71;100947.38;3607347;39;20066;-67
2023/03/11 10:43:21;;;;;;;2.42;0.90;;;;;;;8.17;42.40;100956.59;3598821;39;20051;-67
2023/03/11 10:45:50;;;;;;;2.25;0.80;;;;;;;8.16;41.23;100937.94;3608801;39;20051;-67
2023/03/11 10:48:20;;;;;;;4.82;0.85;;;;;;;8.11;41.13;100951.56;3611125;39;20058;-67
2023/03/11 10:51:03;;;;;;;7.32;2.83;;;;;;;8.01;42.31;100958.31;3609718;39;20043;-68
2023/03/11 10:53:29;;;;;;;2.95;0.70;;;;;;;7.88;42.83;100950.88;3609731;39;20058;-68
2023/03/11 10:55:58;;;;;;;6.28;1.20;;;;;;;7.88;42.47;100961.59;3606874;39;20055;-67
2023/03/11 10:58:29;;;;;;;1.90;0.98;;;;;;;7.84;42.58;100949.28;3605042;39;20059;-68
2023/03/11 11:01:01;;;;;;;6.15;0.88;;;;;;;7.97;43.43;100949.56;3609504;39;20070;-67
2023/03/11 11:03:28;;;;;;;2.67;0.68;;;;;;;8.17;42.71;100940.53;3610460;39;20119;-68
2023/03/11 11:06:03;;;;;;;3.58;0.90;;;;;;;8.29;44.49;100942.59;3608327;39;20340;-68
2023/03/11 11:08:30;;;;;;;3.88;0.93;;;;;;;8.35;42.70;100944.13;3611680;39;20059;-67
2023/03/11 11:11:22;;;;;;;3.15;0.88;;;;;;;8.36;43.61;100944.03;3606847;39;20315;-67
2023/03/11 11:13:59;;;;;;;4.55;1.08;;;;;;;8.38;43.09;100949.34;3609826;39;20106;-67
2023/03/11 11:16:27;;;;;;;5.00;1.00;;;;;;;8.49;42.21;100941.63;3612034;39;20046;-68
2023/03/11 11:19:11;;;;;;;6.63;0.95;;;;;;;8.66;42.18;100948.81;3609324;39;20111;-68
2023/03/11 11:21:47;;;;;;;4.78;1.60;;;;;;;8.62;41.79;100951.69;3606839;39;20270;-67
2023/03/11 11:24:30;;;;;;;3.38;1.00;;;;;;;8.41;41.74;100959.91;3610503;39;20051;-68
2023/03/11 11:27:19;;;;;;;2.25;0.73;;;;;;;8.35;42.47;100949.47;3607800;39;20095;-68
2023/03/11 11:29:46;;;;;;;2.30;0.88;;;;;;;8.27;42.17;100941.81;3609851;39;20054;-68
2023/03/11 11:32:18;;;;;;;3.00;1.10;;;;;;;8.54;41.75;100944.94;3609523;39;20056;-68
2023/03/11 11:35:10;;;;;;;2.42;1.63;;;;;;;8.71;43.24;100940.50;3609433;39;20059;-68
2023/03/11 11:37:47;;;;;;;5.35;1.13;;;;;;;8.92;39.99;100947.44;3604195;39;20051;-68
2023/03/11 11:40:13;;;;;;;3.85;2.40;;;;;;;9.01;40.12;100948.75;3608346;39;20047;-68
2023/03/11 11:42:45;;;;;;;3.58;2.00;;;;;;;9.23;40.17;100948.47;3607729;39;20122;-68
2023/03/11 11:45:43;;;;;;;2.72;0.98;;;;;;;9.53;40.78;100946.78;3598872;39;20062;-68